sensor_id;sensor_type;location;lat;lon;timestamp;pressure;altitude;pressure_sealevel;temperature;humidity
77281;BME280;66339;47.262;17.144;2023-12-29T00:00:27;100560.34;;;21.35;43.34
77281;BME280;66339;47.262;17.144;2023-12-29T00:02:57;100554.44;;;21.33;43.13
77281;BME280;66339;47.262;17.144;2023-12-29T00:05:25;100553.38;;;21.34;43.14
77281;BME280;66339;47.262;17.144;2023-12-29T00:07:56;100548.00;;;21.34;43.15
77281;BME280;66339;47.262;17.144;2023-12-29T00:10:23;100549.06;;;21.33;42.96
77281;BME280;66339;47.262;17.144;2023-12-29T00:12:54;100546.38;;;21.33;42.91
77281;BME280;66339;47.262;17.144;2023-12-29T00:15:21;100550.13;;;21.32;43.02
77281;BME280;66339;47.262;17.144;2023-12-29T00:17:52;100550.13;;;21.32;42.86
77281;BME280;66339;47.262;17.144;2023-12-29T00:20:19;100541.53;;;21.30;42.82
77281;BME280;66339;47.262;17.144;2023-12-29T00:23:03;100525.41;;;21.30;42.92
77281;BME280;66339;47.262;17.144;2023-12-29T00:25:34;100530.78;;;21.30;42.81
77281;BME280;66339;47.262;17.144;2023-12-29T00:28:06;100532.94;;;21.28;42.82
77281;BME280;66339;47.262;17.144;2023-12-29T00:30:42;100530.53;;;21.26;42.87
77281;BME280;66339;47.262;17.144;2023-12-29T00:33:29;100535.09;;;21.26;42.85
77281;BME280;66339;47.262;17.144;2023-12-29T00:36:00;100545.84;;;21.26;42.74
77281;BME280;66339;47.262;17.144;2023-12-29T00:38:29;100538.87;;;21.25;42.89
77281;BME280;66339;47.262;17.144;2023-12-29T00:40:59;100535.37;;;21.24;42.66
77281;BME280;66339;47.262;17.144;2023-12-29T00:43:35;100541.06;;;21.23;42.74
77281;BME280;66339;47.262;17.144;2023-12-29T00:46:05;100536.47;;;21.23;42.76
77281;BME280;66339;47.262;17.144;2023-12-29T00:48:32;100525.97;;;21.22;42.67
77281;BME280;66339;47.262;17.144;2023-12-29T00:51:09;100523.28;;;21.22;42.63
77281;BME280;66339;47.262;17.144;2023-12-29T00:53:36;100525.97;;;21.22;42.66
77281;BME280;66339;47.262;17.144;2023-12-29T00:56:15;100526.28;;;21.20;42.66
77281;BME280;66339;47.262;17.144;2023-12-29T00:58:52;100520.09;;;21.20;42.64
77281;BME280;66339;47.262;17.144;2023-12-29T01:01:22;100526.28;;;21.20;42.60
77281;BME280;66339;47.262;17.144;2023-12-29T01:03:49;100514.72;;;21.20;42.59
77281;BME280;66339;47.262;17.144;2023-12-29T01:06:16;100516.88;;;21.18;42.59
77281;BME280;66339;47.262;17.144;2023-12-29T01:08:43;100516.06;;;21.17;42.56
77281;BME280;66339;47.262;17.144;2023-12-29T01:11:10;100510.44;;;21.19;42.41
77281;BME280;66339;47.262;17.144;2023-12-29T01:13:37;100503.41;;;21.18;42.32
77281;BME280;66339;47.262;17.144;2023-12-29T01:16:04;100509.88;;;21.17;42.43
77281;BME280;66339;47.262;17.144;2023-12-29T01:18:33;100513.66;;;21.16;42.35
77281;BME280;66339;47.262;17.144;2023-12-29T01:21:00;100505.59;;;21.16;42.35
77281;BME280;66339;47.262;17.144;2023-12-29T01:23:30;100502.91;;;21.16;42.35
77281;BME280;66339;47.262;17.144;2023-12-29T01:26:01;100498.63;;;21.15;42.39
77281;BME280;66339;47.262;17.144;2023-12-29T01:28:31;100498.88;;;21.13;42.36
77281;BME280;66339;47.262;17.144;2023-12-29T01:30:58;100500.78;;;21.13;42.38
77281;BME280;66339;47.262;17.144;2023-12-29T01:33:31;100494.91;;;21.11;42.36
77281;BME280;66339;47.262;17.144;2023-12-29T01:36:01;100505.66;;;21.11;42.38
77281;BME280;66339;47.262;17.144;2023-12-29T01:38:40;100504.81;;;21.10;42.43
77281;BME280;66339;47.262;17.144;2023-12-29T01:41:10;100507.81;;;21.08;42.44
77281;BME280;66339;47.262;17.144;2023-12-29T01:46:31;100509.16;;;21.06;42.51
77281;BME280;66339;47.262;17.144;2023-12-29T01:48:59;100505.13;;;21.08;42.39
77281;BME280;66339;47.262;17.144;2023-12-29T01:51:27;100499.22;;;21.06;42.37
77281;BME280;66339;47.262;17.144;2023-12-29T01:54:00;100497.59;;;21.05;42.36
77281;BME280;66339;47.262;17.144;2023-12-29T01:56:31;100496.00;;;21.04;42.34
77281;BME280;66339;47.262;17.144;2023-12-29T01:59:00;100490.63;;;21.04;42.38
77281;BME280;66339;47.262;17.144;2023-12-29T02:01:37;100488.75;;;21.05;42.28
77281;BME280;66339;47.262;17.144;2023-12-29T02:04:12;100486.34;;;21.03;42.23
77281;BME280;66339;47.262;17.144;2023-12-29T02:06:43;100477.47;;;21.03;42.24
77281;BME280;66339;47.262;17.144;2023-12-29T02:09:17;100482.03;;;21.02;42.30
77281;BME280;66339;47.262;17.144;2023-12-29T02:11:47;100472.38;;;21.01;42.14
77281;BME280;66339;47.262;17.144;2023-12-29T02:14:16;100473.47;;;21.00;42.24
77281;BME280;66339;47.262;17.144;2023-12-29T02:17:01;100478.84;;;21.00;42.20
77281;BME280;66339;47.262;17.144;2023-12-29T02:19:42;100475.59;;;20.98;42.21
77281;BME280;66339;47.262;17.144;2023-12-29T02:22:17;100481.00;;;20.98;42.15
77281;BME280;66339;47.262;17.144;2023-12-29T02:24:49;100485.56;;;20.98;42.13
77281;BME280;66339;47.262;17.144;2023-12-29T02:27:41;100477.78;;;20.96;42.13
77281;BME280;66339;47.262;17.144;2023-12-29T02:30:25;100480.78;;;20.95;42.21
77281;BME280;66339;47.262;17.144;2023-12-29T02:33:01;100471.09;;;20.94;42.16
77281;BME280;66339;47.262;17.144;2023-12-29T02:35:32;100482.13;;;20.92;42.08
77281;BME280;66339;47.262;17.144;2023-12-29T02:38:07;100472.97;;;20.93;42.07
77281;BME280;66339;47.262;17.144;2023-12-29T02:40:38;100478.34;;;20.93;42.10
77281;BME280;66339;47.262;17.144;2023-12-29T02:43:06;100472.47;;;20.91;42.15
77281;BME280;66339;47.262;17.144;2023-12-29T02:45:33;100477.84;;;20.91;42.10
77281;BME280;66339;47.262;17.144;2023-12-29T02:48:00;100482.69;;;20.89;42.14
77281;BME280;66339;47.262;17.144;2023-12-29T02:50:31;100477.31;;;20.89;42.12
77281;BME280;66339;47.262;17.144;2023-12-29T02:52:58;100477.31;;;20.89;42.04
77281;BME280;66339;47.262;17.144;2023-12-29T02:55:29;100478.91;;;20.90;42.03
77281;BME280;66339;47.262;17.144;2023-12-29T02:57:56;100470.34;;;20.88;42.04
77281;BME280;66339;47.262;17.144;2023-12-29T03:00:30;100474.91;;;20.88;42.03
77281;BME280;66339;47.262;17.144;2023-12-29T03:03:01;100472.47;;;20.86;41.96
77281;BME280;66339;47.262;17.144;2023-12-29T03:05:35;100473.28;;;20.87;41.98
77281;BME280;66339;47.262;17.144;2023-12-29T03:08:05;100467.09;;;20.86;41.90
77281;BME280;66339;47.262;17.144;2023-12-29T03:10:35;100463.91;;;20.84;41.89
77281;BME280;66339;47.262;17.144;2023-12-29T03:13:06;100463.91;;;20.84;41.93
77281;BME280;66339;47.262;17.144;2023-12-29T03:15:34;100456.12;;;20.82;41.90
77281;BME280;66339;47.262;17.144;2023-12-29T03:18:07;100444.56;;;20.82;41.93
77281;BME280;66339;47.262;17.144;2023-12-29T03:20:34;100451.56;;;20.83;41.82
77281;BME280;66339;47.262;17.144;2023-12-29T03:23:02;100444.84;;;20.80;41.81
77281;BME280;66339;47.262;17.144;2023-12-29T03:25:32;100438.69;;;20.80;41.92
77281;BME280;66339;47.262;17.144;2023-12-29T03:28:01;100440.56;;;20.79;41.81
77281;BME280;66339;47.262;17.144;2023-12-29T03:30:29;100444.31;;;20.78;41.91
77281;BME280;66339;47.262;17.144;2023-12-29T03:32:59;100443.53;;;20.78;41.94
77281;BME280;66339;47.262;17.144;2023-12-29T03:35:34;100450.78;;;20.77;41.96
77281;BME280;66339;47.262;17.144;2023-12-29T03:38:04;100460.75;;;20.77;41.87
77281;BME280;66339;47.262;17.144;2023-12-29T03:40:35;100452.66;;;20.77;41.92
77281;BME280;66339;47.262;17.144;2023-12-29T03:43:02;100452.12;;;20.75;41.93
77281;BME280;66339;47.262;17.144;2023-12-29T03:45:29;100454.03;;;20.74;41.92
77281;BME280;66339;47.262;17.144;2023-12-29T03:47:59;100452.44;;;20.73;41.89
77281;BME280;66339;47.262;17.144;2023-12-29T03:50:33;100449.75;;;20.73;41.94
77281;BME280;66339;47.262;17.144;2023-12-29T03:53:03;100455.41;;;20.72;41.98
77281;BME280;66339;47.262;17.144;2023-12-29T03:55:30;100451.63;;;20.73;42.00
77281;BME280;66339;47.262;17.144;2023-12-29T03:57:57;100460.00;;;20.71;41.91
77281;BME280;66339;47.262;17.144;2023-12-29T04:00:25;100458.34;;;20.70;42.00
77281;BME280;66339;47.262;17.144;2023-12-29T04:02:55;100456.75;;;20.69;41.99
77281;BME280;66339;47.262;17.144;2023-12-29T04:05:22;100455.97;;;20.69;41.98
77281;BME280;66339;47.262;17.144;2023-12-29T04:07:49;100451.38;;;20.69;41.85
77281;BME280;66339;47.262;17.144;2023-12-29T04:10:23;100451.69;;;20.68;41.88
77281;BME280;66339;47.262;17.144;2023-12-29T04:12:52;100459.75;;;20.68;41.92
77281;BME280;66339;47.262;17.144;2023-12-29T04:15:19;100458.94;;;20.67;41.80
77281;BME280;66339;47.262;17.144;2023-12-29T04:17:50;100471.56;;;20.67;41.82
77281;BME280;66339;47.262;17.144;2023-12-29T04:20:20;100468.88;;;20.67;41.81
77281;BME280;66339;47.262;17.144;2023-12-29T04:22:48;100471.84;;;20.65;41.76
77281;BME280;66339;47.262;17.144;2023-12-29T04:25:18;100451.44;;;20.64;41.81
77281;BME280;66339;47.262;17.144;2023-12-29T04:27:48;100443.63;;;20.63;41.76
77281;BME280;66339;47.262;17.144;2023-12-29T04:30:16;100440.94;;;20.63;41.79
77281;BME280;66339;47.262;17.144;2023-12-29T04:32:42;100443.63;;;20.63;41.76
77281;BME280;66339;47.262;17.144;2023-12-29T04:35:13;100439.34;;;20.62;41.77
77281;BME280;66339;47.262;17.144;2023-12-29T04:37:44;100443.38;;;20.59;41.75
77281;BME280;66339;47.262;17.144;2023-12-29T04:40:11;100446.91;;;20.59;41.77
77281;BME280;66339;47.262;17.144;2023-12-29T04:42:41;100442.31;;;20.60;41.80
77281;BME280;66339;47.262;17.144;2023-12-29T04:45:15;100440.69;;;20.59;41.70
77281;BME280;66339;47.262;17.144;2023-12-29T04:47:45;100436.41;;;20.58;41.78
77281;BME280;66339;47.262;17.144;2023-12-29T04:50:18;100427.56;;;20.57;41.77
77281;BME280;66339;47.262;17.144;2023-12-29T04:52:48;100433.47;;;20.54;41.77
77281;BME280;66339;47.262;17.144;2023-12-29T04:55:27;100423.28;;;20.56;41.76
77281;BME280;66339;47.262;17.144;2023-12-29T04:57:58;100425.97;;;20.56;41.78
77281;BME280;66339;47.262;17.144;2023-12-29T05:00:31;100429.75;;;20.55;41.81
77281;BME280;66339;47.262;17.144;2023-12-29T05:03:05;100432.69;;;20.54;41.86
77281;BME280;66339;47.262;17.144;2023-12-29T05:05:39;100437.25;;;20.53;41.93
77281;BME280;66339;47.262;17.144;2023-12-29T05:08:06;100434.03;;;20.51;42.03
77281;BME280;66339;47.262;17.144;2023-12-29T05:10:40;100437.56;;;20.52;41.94
77281;BME280;66339;47.262;17.144;2023-12-29T05:13:11;100441.03;;;20.52;41.98
77281;BME280;66339;47.262;17.144;2023-12-29T05:15:47;100441.03;;;20.52;42.07
77281;BME280;66339;47.262;17.144;2023-12-29T05:18:20;100443.97;;;20.51;42.13
77281;BME280;66339;47.262;17.144;2023-12-29T05:20:47;100450.97;;;20.52;42.00
77281;BME280;66339;47.262;17.144;2023-12-29T05:23:16;100442.62;;;20.53;42.17
77281;BME280;66339;47.262;17.144;2023-12-29T05:25:47;100447.47;;;20.51;42.20
77281;BME280;66339;47.262;17.144;2023-12-29T05:28:17;100452.84;;;20.51;42.26
77281;BME280;66339;47.262;17.144;2023-12-29T05:30:45;100456.63;;;20.50;42.32
77281;BME280;66339;47.262;17.144;2023-12-29T05:33:15;100446.16;;;20.49;42.32
77281;BME280;66339;47.262;17.144;2023-12-29T05:35:44;100467.37;;;20.50;42.37
77281;BME280;66339;47.262;17.144;2023-12-29T05:38:12;100476.53;;;20.49;42.37
77281;BME280;66339;47.262;17.144;2023-12-29T05:40:46;100477.03;;;20.51;42.28
77281;BME280;66339;47.262;17.144;2023-12-29T05:43:16;100481.34;;;20.52;42.50
77281;BME280;66339;47.262;17.144;2023-12-29T05:45:46;100486.44;;;20.54;42.45
77281;BME280;66339;47.262;17.144;2023-12-29T05:48:14;100485.06;;;20.56;42.43
77281;BME280;66339;47.262;17.144;2023-12-29T05:50:41;100493.66;;;20.58;42.53
77281;BME280;66339;47.262;17.144;2023-12-29T05:53:08;100497.66;;;20.61;42.59
77281;BME280;66339;47.262;17.144;2023-12-29T05:55:39;100497.38;;;20.63;42.34
77281;BME280;66339;47.262;17.144;2023-12-29T05:58:11;100487.16;;;20.65;42.35
77281;BME280;66339;47.262;17.144;2023-12-29T06:00:42;100474.25;;;20.67;42.14
77281;BME280;66339;47.262;17.144;2023-12-29T06:03:09;100475.88;;;20.68;41.89
77281;BME280;66339;47.262;17.144;2023-12-29T06:05:41;100471.00;;;20.70;42.83
77281;BME280;66339;47.262;17.144;2023-12-29T06:08:12;100483.94;;;20.68;43.20
77281;BME280;66339;47.262;17.144;2023-12-29T06:10:43;100478.56;;;20.68;43.29
77281;BME280;66339;47.262;17.144;2023-12-29T06:13:13;100488.78;;;20.66;43.36
77281;BME280;66339;47.262;17.144;2023-12-29T06:15:47;100485.56;;;20.64;43.46
77281;BME280;66339;47.262;17.144;2023-12-29T06:18:14;100488.28;;;20.58;43.78
77281;BME280;66339;47.262;17.144;2023-12-29T06:20:44;100482.62;;;20.60;42.87
77281;BME280;66339;47.262;17.144;2023-12-29T06:23:14;100490.97;;;20.58;43.07
77281;BME280;66339;47.262;17.144;2023-12-29T06:25:44;100504.41;;;20.58;43.14
77281;BME280;66339;47.262;17.144;2023-12-29T06:28:11;100504.41;;;20.58;43.07
77281;BME280;66339;47.262;17.144;2023-12-29T06:30:43;100499.03;;;20.58;42.58
77281;BME280;66339;47.262;17.144;2023-12-29T06:33:10;100503.09;;;20.56;43.20
77281;BME280;66339;47.262;17.144;2023-12-29T06:35:40;100506.56;;;20.56;43.07
77281;BME280;66339;47.262;17.144;2023-12-29T06:38:10;100501.47;;;20.55;43.31
77281;BME280;66339;47.262;17.144;2023-12-29T06:40:37;100497.47;;;20.52;43.37
77281;BME280;66339;47.262;17.144;2023-12-29T06:43:11;100498.78;;;20.55;43.40
77281;BME280;66339;47.262;17.144;2023-12-29T06:45:41;100492.06;;;20.57;43.47
77281;BME280;66339;47.262;17.144;2023-12-29T06:48:08;100493.66;;;20.58;43.44
77281;BME280;66339;47.262;17.144;2023-12-29T06:50:38;100488.56;;;20.57;43.33
77281;BME280;66339;47.262;17.144;2023-12-29T06:53:09;100492.84;;;20.58;43.44
77281;BME280;66339;47.262;17.144;2023-12-29T06:55:38;100494.75;;;20.57;43.61
77281;BME280;66339;47.262;17.144;2023-12-29T06:58:06;100497.41;;;20.57;43.67
77281;BME280;66339;47.262;17.144;2023-12-29T07:00:38;100505.44;;;20.63;43.57
77281;BME280;66339;47.262;17.144;2023-12-29T07:03:13;100520.50;;;20.64;43.77
77281;BME280;66339;47.262;17.144;2023-12-29T07:05:40;100525.91;;;20.58;43.84
77281;BME280;66339;47.262;17.144;2023-12-29T07:08:12;100518.91;;;20.57;44.05
77281;BME280;66339;47.262;17.144;2023-12-29T07:10:40;100520.53;;;20.58;44.10
77281;BME280;66339;47.262;17.144;2023-12-29T07:13:11;100519.97;;;20.62;44.07
77281;BME280;66339;47.262;17.144;2023-12-29T07:15:42;100517.53;;;20.65;44.15
77281;BME280;66339;47.262;17.144;2023-12-29T07:18:19;100515.09;;;20.69;43.99
77281;BME280;66339;47.262;17.144;2023-12-29T07:20:53;100522.63;;;20.67;44.39
77281;BME280;66339;47.262;17.144;2023-12-29T07:23:26;100521.03;;;20.66;44.21
77281;BME280;66339;47.262;17.144;2023-12-29T07:25:55;100516.19;;;20.63;44.33
77281;BME280;66339;47.262;17.144;2023-12-29T07:28:23;100527.75;;;20.63;44.47
77281;BME280;66339;47.262;17.144;2023-12-29T07:30:50;100533.94;;;20.64;44.64
77281;BME280;66339;47.262;17.144;2023-12-29T07:33:18;100535.56;;;20.65;45.00
77281;BME280;66339;47.262;17.144;2023-12-29T07:35:46;100533.94;;;20.64;45.22
77281;BME280;66339;47.262;17.144;2023-12-29T07:38:16;100536.88;;;20.67;45.19
77281;BME280;66339;47.262;17.144;2023-12-29T07:40:50;100538.19;;;20.70;45.09
77281;BME280;66339;47.262;17.144;2023-12-29T07:43:26;100538.44;;;20.73;44.44
77281;BME280;66339;47.262;17.144;2023-12-29T07:45:57;100547.84;;;20.76;43.92
77281;BME280;66339;47.262;17.144;2023-12-29T07:48:28;100543.28;;;20.76;43.53
77281;BME280;66339;47.262;17.144;2023-12-29T07:51:07;100553.72;;;20.78;43.34
77281;BME280;66339;47.262;17.144;2023-12-29T07:53:42;100565.56;;;20.77;43.54
77281;BME280;66339;47.262;17.144;2023-12-29T07:56:16;100570.94;;;20.77;43.38
77281;BME280;66339;47.262;17.144;2023-12-29T07:58:42;100559.09;;;20.78;43.95
77281;BME280;66339;47.262;17.144;2023-12-29T08:01:13;100561.81;;;20.78;43.35
77281;BME280;66339;47.262;17.144;2023-12-29T08:03:40;100561.84;;;20.73;43.18
77281;BME280;66339;47.262;17.144;2023-12-29T08:06:08;100558.59;;;20.71;43.52
77281;BME280;66339;47.262;17.144;2023-12-29T08:08:38;100563.47;;;20.69;43.67
77281;BME280;66339;47.262;17.144;2023-12-29T08:11:15;100554.88;;;20.67;43.85
77281;BME280;66339;47.262;17.144;2023-12-29T08:13:44;100561.06;;;20.67;44.12
77281;BME280;66339;47.262;17.144;2023-12-29T08:16:11;100562.94;;;20.67;44.36
77281;BME280;66339;47.262;17.144;2023-12-29T08:18:41;100557.06;;;20.65;43.62
77281;BME280;66339;47.262;17.144;2023-12-29T08:21:16;100553.56;;;20.59;41.37
77281;BME280;66339;47.262;17.144;2023-12-29T08:23:47;100557.62;;;20.51;42.82
77281;BME280;66339;47.262;17.144;2023-12-29T08:26:21;100550.13;;;20.48;44.12
77281;BME280;66339;47.262;17.144;2023-12-29T08:28:48;100548.50;;;20.47;44.83
77281;BME280;66339;47.262;17.144;2023-12-29T08:31:18;100548.50;;;20.47;45.10
77281;BME280;66339;47.262;17.144;2023-12-29T08:33:52;100550.38;;;20.47;45.19
77281;BME280;66339;47.262;17.144;2023-12-29T08:36:26;100545.59;;;20.49;45.15
77281;BME280;66339;47.262;17.144;2023-12-29T08:38:56;100544.75;;;20.53;45.08
77281;BME280;66339;47.262;17.144;2023-12-29T08:41:32;100539.38;;;20.53;45.09
77281;BME280;66339;47.262;17.144;2023-12-29T08:43:59;100531.31;;;20.53;45.08
77281;BME280;66339;47.262;17.144;2023-12-29T08:46:31;100539.91;;;20.50;44.85
77281;BME280;66339;47.262;17.144;2023-12-29T08:49:04;100532.16;;;20.49;44.79
77281;BME280;66339;47.262;17.144;2023-12-29T08:51:34;100521.41;;;20.49;44.91
77281;BME280;66339;47.262;17.144;2023-12-29T08:54:01;100527.03;;;20.52;45.06
77281;BME280;66339;47.262;17.144;2023-12-29T08:56:28;100524.72;;;20.75;44.61
77281;BME280;66339;47.262;17.144;2023-12-29T08:58:55;100522.97;;;21.28;43.62
77281;BME280;66339;47.262;17.144;2023-12-29T09:01:29;100530.88;;;21.78;42.52
77281;BME280;66339;47.262;17.144;2023-12-29T09:03:59;100533.88;;;22.24;41.59
77281;BME280;66339;47.262;17.144;2023-12-29T09:06:29;100533.66;;;22.59;40.84
77281;BME280;66339;47.262;17.144;2023-12-29T09:09:01;100537.00;;;22.88;40.00
77281;BME280;66339;47.262;17.144;2023-12-29T09:11:28;100535.13;;;23.08;39.37
77281;BME280;66339;47.262;17.144;2023-12-29T09:13:58;100540.94;;;23.15;37.23
77281;BME280;66339;47.262;17.144;2023-12-29T09:16:31;100543.31;;;23.49;37.76
77281;BME280;66339;47.262;17.144;2023-12-29T09:18:57;100543.50;;;23.85;37.43
77281;BME280;66339;47.262;17.144;2023-12-29T09:21:28;100539.66;;;24.28;36.49
77281;BME280;66339;47.262;17.144;2023-12-29T09:23:57;100543.38;;;24.45;35.82
77281;BME280;66339;47.262;17.144;2023-12-29T09:26:27;100543.38;;;23.76;36.31
77281;BME280;66339;47.262;17.144;2023-12-29T09:28:57;100549.03;;;23.47;37.16
77281;BME280;66339;47.262;17.144;2023-12-29T09:31:30;100529.69;;;23.73;36.27
77281;BME280;66339;47.262;17.144;2023-12-29T09:34:00;100530.91;;;24.72;34.35
77281;BME280;66339;47.262;17.144;2023-12-29T09:36:28;100515.28;;;25.36;33.52
77281;BME280;66339;47.262;17.144;2023-12-29T09:38:55;100507.09;;;25.90;32.55
77281;BME280;66339;47.262;17.144;2023-12-29T09:41:26;100511.41;;;26.00;32.15
77281;BME280;66339;47.262;17.144;2023-12-29T09:44:00;100502.50;;;26.08;32.21
77281;BME280;66339;47.262;17.144;2023-12-29T09:46:31;100506.75;;;25.91;32.20
77281;BME280;66339;47.262;17.144;2023-12-29T09:49:11;100503.06;;;25.48;33.17
77281;BME280;66339;47.262;17.144;2023-12-29T09:51:43;100508.03;;;25.01;33.99
77281;BME280;66339;47.262;17.144;2023-12-29T09:54:14;100521.78;;;24.68;34.40
77281;BME280;66339;47.262;17.144;2023-12-29T09:56:50;100513.19;;;24.66;34.06
77281;BME280;66339;47.262;17.144;2023-12-29T09:59:20;100503.22;;;24.53;34.49
77281;BME280;66339;47.262;17.144;2023-12-29T10:01:52;100506.81;;;24.34;35.06
77281;BME280;66339;47.262;17.144;2023-12-29T10:04:20;100495.22;;;24.20;35.79
77281;BME280;66339;47.262;17.144;2023-12-29T10:06:49;100496.84;;;24.21;35.82
77281;BME280;66339;47.262;17.144;2023-12-29T10:09:23;100499.03;;;24.19;35.79
77281;BME280;66339;47.262;17.144;2023-12-29T10:11:56;100487.75;;;24.03;36.04
77281;BME280;66339;47.262;17.144;2023-12-29T10:14:34;100478.47;;;23.68;36.67
77281;BME280;66339;47.262;17.144;2023-12-29T10:20:25;100456.69;;;23.04;37.97
77281;BME280;66339;47.262;17.144;2023-12-29T10:25:25;100458.31;;;22.67;39.23
77281;BME280;66339;47.262;17.144;2023-12-29T10:27:56;100458.25;;;22.53;39.56
77281;BME280;66339;47.262;17.144;2023-12-29T10:30:27;100446.34;;;22.41;39.86
77281;BME280;66339;47.262;17.144;2023-12-29T10:33:01;100451.06;;;22.30;40.15
77281;BME280;66339;47.262;17.144;2023-12-29T10:35:29;100445.53;;;22.21;40.38
77281;BME280;66339;47.262;17.144;2023-12-29T10:38:13;100461.53;;;22.13;40.66
77281;BME280;66339;47.262;17.144;2023-12-29T10:40:41;100460.53;;;22.03;40.97
77281;BME280;66339;47.262;17.144;2023-12-29T10:43:12;100464.91;;;21.99;41.04
77281;BME280;66339;47.262;17.144;2023-12-29T10:45:44;100466.88;;;21.94;41.08
77281;BME280;66339;47.262;17.144;2023-12-29T10:48:20;100462.34;;;21.89;41.20
77281;BME280;66339;47.262;17.144;2023-12-29T10:50:51;100464.03;;;21.85;41.31
77281;BME280;66339;47.262;17.144;2023-12-29T10:55:56;100464.13;;;21.75;41.63
77281;BME280;66339;47.262;17.144;2023-12-29T10:58:23;100453.94;;;21.72;41.90
77281;BME280;66339;47.262;17.144;2023-12-29T11:00:53;100449.12;;;21.69;42.26
77281;BME280;66339;47.262;17.144;2023-12-29T11:03:23;100446.50;;;21.64;42.36
77281;BME280;66339;47.262;17.144;2023-12-29T11:06:02;100447.06;;;21.61;42.64
77281;BME280;66339;47.262;17.144;2023-12-29T11:08:38;100441.16;;;21.59;42.76
77281;BME280;66339;47.262;17.144;2023-12-29T11:11:08;100429.87;;;21.56;42.97
77281;BME280;66339;47.262;17.144;2023-12-29T11:13:36;100426.69;;;21.54;43.13
77281;BME280;66339;47.262;17.144;2023-12-29T11:16:07;100426.97;;;21.53;43.37
77281;BME280;66339;47.262;17.144;2023-12-29T11:18:44;100423.47;;;21.52;43.38
77281;BME280;66339;47.262;17.144;2023-12-29T11:21:15;100428.34;;;21.50;43.58
77281;BME280;66339;47.262;17.144;2023-12-29T11:23:50;100429.94;;;21.51;43.65
77281;BME280;66339;47.262;17.144;2023-12-29T11:26:18;100422.97;;;21.50;43.83
77281;BME280;66339;47.262;17.144;2023-12-29T11:28:47;100416.78;;;21.50;43.93
77281;BME280;66339;47.262;17.144;2023-12-29T11:31:17;100410.56;;;21.49;44.09
77281;BME280;66339;47.262;17.144;2023-12-29T11:34:00;100402.31;;;21.46;44.61
77281;BME280;66339;47.262;17.144;2023-12-29T11:36:34;100397.19;;;21.44;44.62
77281;BME280;66339;47.262;17.144;2023-12-29T11:39:26;100388.88;;;21.41;45.12
77281;BME280;66339;47.262;17.144;2023-12-29T11:45:28;100373.84;;;21.40;45.13
77281;BME280;66339;47.262;17.144;2023-12-29T11:47:56;100366.06;;;21.38;45.25
77281;BME280;66339;47.262;17.144;2023-12-29T11:50:30;100356.91;;;21.39;45.28
77281;BME280;66339;47.262;17.144;2023-12-29T11:52:59;100366.06;;;21.38;45.05
77281;BME280;66339;47.262;17.144;2023-12-29T11:55:37;100364.44;;;21.37;45.28
77281;BME280;66339;47.262;17.144;2023-12-29T11:58:25;100374.12;;;21.38;45.46
77281;BME280;66339;47.262;17.144;2023-12-29T12:00:56;100384.38;;;21.36;45.49
77281;BME280;66339;47.262;17.144;2023-12-29T12:03:31;100389.75;;;21.36;45.31
77281;BME280;66339;47.262;17.144;2023-12-29T12:06:05;100399.72;;;21.36;45.25
77281;BME280;66339;47.262;17.144;2023-12-29T12:08:36;100391.94;;;21.34;45.75
77281;BME280;66339;47.262;17.144;2023-12-29T12:16:52;100397.31;;;21.34;46.43
77281;BME280;66339;47.262;17.144;2023-12-29T12:19:21;100385.72;;;21.33;46.58
77281;BME280;66339;47.262;17.144;2023-12-29T12:21:56;100384.94;;;21.33;46.65
77281;BME280;66339;47.262;17.144;2023-12-29T12:24:27;100370.94;;;21.31;46.67
77281;BME280;66339;47.262;17.144;2023-12-29T12:26:58;100365.56;;;21.31;46.65
77281;BME280;66339;47.262;17.144;2023-12-29T12:29:35;100369.34;;;21.30;46.65
77281;BME280;66339;47.262;17.144;2023-12-29T12:32:04;100364.78;;;21.30;46.68
77281;BME280;66339;47.262;17.144;2023-12-29T12:34:40;100362.34;;;21.29;46.67
77281;BME280;66339;47.262;17.144;2023-12-29T12:37:08;100354.28;;;21.29;46.63
77281;BME280;66339;47.262;17.144;2023-12-29T12:39:40;100353.47;;;21.28;46.63
77281;BME280;66339;47.262;17.144;2023-12-29T12:42:08;100350.00;;;21.28;46.63
77281;BME280;66339;47.262;17.144;2023-12-29T12:44:39;100348.41;;;21.27;46.53
77281;BME280;66339;47.262;17.144;2023-12-29T12:47:19;100348.97;;;21.24;46.67
77281;BME280;66339;47.262;17.144;2023-12-29T12:49:56;100338.22;;;21.24;46.41
77281;BME280;66339;47.262;17.144;2023-12-29T12:52:38;100335.81;;;21.22;46.58
77281;BME280;66339;47.262;17.144;2023-12-29T12:55:11;100333.41;;;21.21;46.55
77281;BME280;66339;47.262;17.144;2023-12-29T12:57:39;100326.41;;;21.20;46.46
77281;BME280;66339;47.262;17.144;2023-12-29T13:00:10;100321.03;;;21.20;46.41
77281;BME280;66339;47.262;17.144;2023-12-29T13:02:40;100301.69;;;21.18;46.28
77281;BME280;66339;47.262;17.144;2023-12-29T13:05:10;100294.72;;;21.17;46.19
77281;BME280;66339;47.262;17.144;2023-12-29T13:07:40;100293.91;;;21.16;46.20
77281;BME280;66339;47.262;17.144;2023-12-29T13:10:07;100299.28;;;21.16;46.09
77281;BME280;66339;47.262;17.144;2023-12-29T13:12:35;100299.88;;;21.13;46.09
77281;BME280;66339;47.262;17.144;2023-12-29T13:15:11;100299.88;;;21.13;46.13
77281;BME280;66339;47.262;17.144;2023-12-29T13:17:49;100301.75;;;21.13;46.16
77281;BME280;66339;47.262;17.144;2023-12-29T13:20:19;100304.44;;;21.13;46.20